createdAt,value
2017-05-18T19:52:11.836Z,22.56
2017-05-18T19:53:26.081Z,22.38
2017-05-18T19:54:39.928Z,22.31
2017-05-18T19:55:53.570Z,22.15
2017-05-18T19:57:07.520Z,22.04
2017-05-18T19:58:21.325Z,22.06
2017-05-18T19:59:35.504Z,22.03
2017-05-18T20:00:49.771Z,21.85
2017-05-18T20:02:03.710Z,21.83
2017-05-18T20:03:18.087Z,21.78
2017-05-18T20:04:32.031Z,21.7
2017-05-18T20:05:45.753Z,21.63
2017-05-18T20:06:59.709Z,21.5
2017-05-18T20:08:13.440Z,21.48
2017-05-18T20:09:27.378Z,21.51
2017-05-18T20:10:41.035Z,21.4
2017-05-18T20:11:55.274Z,21.3
2017-05-18T20:13:09.011Z,21.25
2017-05-18T20:14:22.826Z,21.25
2017-05-18T20:15:36.470Z,21.15
2017-05-18T20:16:50.594Z,21.22
2017-05-18T20:18:04.299Z,21.25
2017-05-18T20:19:18.175Z,21.1
2017-05-18T20:20:31.852Z,21.13
2017-05-18T20:21:45.690Z,21.08
2017-05-18T20:22:59.523Z,21.08
2017-05-18T20:24:13.490Z,20.96
2017-05-18T20:25:27.134Z,20.96
2017-05-18T20:26:40.979Z,20.86
2017-05-18T20:27:54.616Z,20.93
2017-05-18T20:29:08.841Z,20.86
2017-05-18T20:30:22.511Z,20.88
2017-05-18T20:31:36.880Z,20.89
2017-05-18T20:32:50.527Z,20.75
2017-05-18T20:34:05.002Z,20.77
2017-05-18T20:35:18.734Z,20.64
2017-05-18T20:36:34.585Z,20.64
2017-05-18T20:37:49.904Z,20.66
2017-05-18T20:39:05.713Z,20.6
2017-05-18T20:40:20.354Z,20.58
2017-05-18T20:41:34.877Z,20.5
2017-05-18T20:42:48.996Z,20.42
2017-05-18T20:44:02.928Z,20.39
2017-05-18T20:45:16.719Z,20.4
2017-05-18T20:46:31.123Z,20.29
2017-05-18T20:47:44.833Z,20.33
2017-05-18T20:48:59.512Z,20.18
2017-05-18T20:50:13.510Z,20.12
2017-05-18T20:51:28.273Z,20.18
2017-05-18T20:52:41.989Z,20.18
2017-05-18T20:53:56.742Z,20.15
2017-05-18T20:55:11.593Z,20.08
2017-05-18T20:56:25.804Z,20.08
2017-05-18T20:57:40.448Z,20.03
2017-05-18T20:58:55.105Z,20.07
2017-05-18T21:00:09.876Z,20
2017-05-18T21:01:39.959Z,19.97
2017-05-18T21:02:53.836Z,19.94
2017-05-18T21:04:07.693Z,19.87
2017-05-18T21:05:21.671Z,19.9
2017-05-18T21:06:35.789Z,19.87
2017-05-18T21:07:49.474Z,19.82
2017-05-18T21:09:03.682Z,19.75
2017-05-18T21:10:17.459Z,19.78
2017-05-18T21:11:31.303Z,19.78
2017-05-18T21:12:45.003Z,19.71
2017-05-18T21:13:58.937Z,19.7
2017-05-18T21:15:13.197Z,19.7
2017-05-18T21:16:27.842Z,19.74
2017-05-18T21:17:41.498Z,19.66
2017-05-18T21:18:55.358Z,19.82
2017-05-18T21:20:09.455Z,19.74
2017-05-18T21:21:24.118Z,19.64
2017-05-18T21:22:37.907Z,19.74
2017-05-18T21:24:09.884Z,19.67
2017-05-18T21:25:23.855Z,19.64
2017-05-18T21:26:37.606Z,19.56
2017-05-18T21:27:51.622Z,19.63
2017-05-18T21:29:05.421Z,19.67
2017-05-18T21:30:19.499Z,19.64
2017-05-18T21:31:33.506Z,19.66
2017-05-18T21:32:47.360Z,19.56
2017-05-18T21:34:01.233Z,19.59
2017-05-18T21:35:15.136Z,19.59
2017-05-18T21:36:28.900Z,19.53
2017-05-18T21:37:43.546Z,19.52
2017-05-18T21:38:57.560Z,19.56
2017-05-18T21:40:12.187Z,19.56
2017-05-18T21:41:26.095Z,19.53
2017-05-18T21:42:40.476Z,19.56
2017-05-18T21:43:54.703Z,19.53
2017-05-18T21:45:08.805Z,19.45
2017-05-18T21:46:22.499Z,19.47
2017-05-18T21:47:36.751Z,19.37
2017-05-18T21:48:50.719Z,19.35
2017-05-18T21:50:04.821Z,19.3
2017-05-18T21:51:18.779Z,19.32
2017-05-18T21:52:32.601Z,19.37
2017-05-18T21:53:47.557Z,19.27
2017-05-18T21:55:02.222Z,19.19
2017-05-18T21:56:16.182Z,19.16
2017-05-18T21:57:31.025Z,19.17
2017-05-18T21:58:44.944Z,19.12
2017-05-18T21:59:58.862Z,19.15
2017-05-18T22:01:12.795Z,19.09
2017-05-18T22:02:27.011Z,19.22
2017-05-18T22:03:41.241Z,19.2
2017-05-18T22:04:55.908Z,19.39
2017-05-18T22:06:09.784Z,19.52
2017-05-18T22:07:23.925Z,19.64
2017-05-18T22:08:37.946Z,19.7
2017-05-18T22:09:51.748Z,19.78
2017-05-18T22:11:05.449Z,19.75
2017-05-18T22:12:19.308Z,19.74
2017-05-18T22:13:32.907Z,19.56
2017-05-18T22:14:47.148Z,19.52
2017-05-18T22:16:00.871Z,19.37
2017-05-18T22:17:16.667Z,19.32
2017-05-18T22:18:30.290Z,19.19
2017-05-18T22:19:44.155Z,19.27
2017-05-18T22:20:58.568Z,19.17
2017-05-18T22:22:12.345Z,19.12
2017-05-18T22:23:27.433Z,19.19
2017-05-18T22:24:41.333Z,19.12
2017-05-18T22:25:54.949Z,19.09
2017-05-18T22:27:09.132Z,19.15
2017-05-18T22:28:23.552Z,19.07
2017-05-18T22:29:37.406Z,19.09
2017-05-18T22:30:51.046Z,19.01
2017-05-18T22:32:05.263Z,19.15
2017-05-18T22:33:19.234Z,19.12
2017-05-18T22:34:33.113Z,19.15
2017-05-18T22:35:46.739Z,19.09
2017-05-18T22:37:00.798Z,19.23
2017-05-18T22:38:14.427Z,19.34
2017-05-18T22:39:29.369Z,19.41
2017-05-18T22:40:43.152Z,19.45
2017-05-18T22:42:16.867Z,19.49
2017-05-18T22:43:30.646Z,19.52
2017-05-18T22:44:44.273Z,19.6
2017-05-18T22:45:58.482Z,19.63
2017-05-18T22:47:12.171Z,19.7
2017-05-18T22:48:25.965Z,19.71
2017-05-18T22:49:39.909Z,19.6
2017-05-18T22:50:53.744Z,19.7
2017-05-18T22:52:07.473Z,19.74
2017-05-18T22:53:21.391Z,19.84
2017-05-18T22:54:35.036Z,19.82
2017-05-18T22:55:49.227Z,19.85
2017-05-18T22:57:02.861Z,19.93
2017-05-18T22:58:17.007Z,19.93
2017-05-18T22:59:30.717Z,19.93
2017-05-18T23:00:45.814Z,19.85
2017-05-18T23:01:59.752Z,19.87
2017-05-18T23:03:13.692Z,19.93
2017-05-18T23:04:27.696Z,19.84
2017-05-18T23:05:41.596Z,19.9
2017-05-18T23:06:55.380Z,19.9
2017-05-18T23:08:09.583Z,19.94
2017-05-18T23:09:23.597Z,19.92
2017-05-18T23:10:37.461Z,19.89
2017-05-18T23:11:51.086Z,19.92
2017-05-18T23:13:05.076Z,19.94
2017-05-18T23:14:19.101Z,19.94
2017-05-18T23:15:33.034Z,19.94
2017-05-18T23:16:47.053Z,19.9
2017-05-18T23:18:00.948Z,19.79
2017-05-18T23:19:14.603Z,19.82
2017-05-18T23:20:28.824Z,19.85
2017-05-18T23:21:42.491Z,19.93
2017-05-18T23:22:56.369Z,19.82
2017-05-18T23:24:09.999Z,19.87
2017-05-18T23:25:23.889Z,19.82
2017-05-18T23:26:37.847Z,19.84
2017-05-18T23:27:51.727Z,19.9
2017-05-18T23:29:05.390Z,19.82
2017-05-18T23:30:19.336Z,19.85
2017-05-18T23:31:33.010Z,19.79
2017-05-18T23:32:47.311Z,19.82
2017-05-18T23:34:01.112Z,19.79
2017-05-18T23:35:14.964Z,19.79
2017-05-18T23:36:28.619Z,19.67
2017-05-18T23:37:42.484Z,19.84
2017-05-18T23:38:56.487Z,19.74
2017-05-18T23:40:11.076Z,19.85
2017-05-18T23:41:24.738Z,19.81
2017-05-18T23:42:38.591Z,19.85
2017-05-18T23:43:52.559Z,19.74
2017-05-18T23:45:06.832Z,19.81
2017-05-18T23:46:20.833Z,19.79
2017-05-18T23:47:34.685Z,19.85
2017-05-18T23:48:48.340Z,19.81
2017-05-18T23:50:02.251Z,19.89
2017-05-18T23:51:16.509Z,19.92
2017-05-18T23:52:30.326Z,19.93
2017-05-18T23:53:44.260Z,19.84
2017-05-18T23:54:58.166Z,19.89
2017-05-18T23:56:11.850Z,19.9
2017-05-18T23:57:25.988Z,19.89
2017-05-18T23:58:39.631Z,19.9
2017-05-18T23:59:53.559Z,19.87
